sensor_id;sensor_type;location;lat;lon;timestamp;temperature;humidity
30702;DHT22;17451;49.908;7.980;2022-07-11T00:01:13;20.20;99.90
30702;DHT22;17451;49.908;7.980;2022-07-11T00:03:38;20.20;99.90
30702;DHT22;17451;49.908;7.980;2022-07-11T00:06:09;20.20;99.90
30702;DHT22;17451;49.908;7.980;2022-07-11T00:08:46;20.10;99.90
30702;DHT22;17451;49.908;7.980;2022-07-11T00:11:11;20.00;99.90
30702;DHT22;17451;49.908;7.980;2022-07-11T00:13:37;20.00;99.90
30702;DHT22;17451;49.908;7.980;2022-07-11T00:16:08;20.00;99.90
30702;DHT22;17451;49.908;7.980;2022-07-11T00:18:35;20.00;99.90
30702;DHT22;17451;49.908;7.980;2022-07-11T00:21:00;20.00;99.90
30702;DHT22;17451;49.908;7.980;2022-07-11T00:23:26;20.10;99.90
30702;DHT22;17451;49.908;7.980;2022-07-11T00:25:52;20.00;99.90
30702;DHT22;17451;49.908;7.980;2022-07-11T00:28:18;20.00;99.90
30702;DHT22;17451;49.908;7.980;2022-07-11T00:30:51;20.00;99.90
30702;DHT22;17451;49.908;7.980;2022-07-11T00:33:27;20.00;99.90
30702;DHT22;17451;49.908;7.980;2022-07-11T00:35:56;20.00;99.90
30702;DHT22;17451;49.908;7.980;2022-07-11T00:38:27;20.10;99.90
30702;DHT22;17451;49.908;7.980;2022-07-11T00:40:59;20.20;99.90
30702;DHT22;17451;49.908;7.980;2022-07-11T00:43:40;20.10;99.90
30702;DHT22;17451;49.908;7.980;2022-07-11T00:46:09;20.20;99.90
30702;DHT22;17451;49.908;7.980;2022-07-11T00:48:55;20.20;99.90
30702;DHT22;17451;49.908;7.980;2022-07-11T00:51:24;20.20;99.90
30702;DHT22;17451;49.908;7.980;2022-07-11T00:53:54;20.30;99.90
30702;DHT22;17451;49.908;7.980;2022-07-11T00:56:31;20.30;99.90
30702;DHT22;17451;49.908;7.980;2022-07-11T00:59:15;20.30;99.90
30702;DHT22;17451;49.908;7.980;2022-07-11T01:01:45;20.30;99.90
30702;DHT22;17451;49.908;7.980;2022-07-11T01:04:11;20.20;99.90
30702;DHT22;17451;49.908;7.980;2022-07-11T01:06:41;20.20;99.90
30702;DHT22;17451;49.908;7.980;2022-07-11T01:09:07;20.30;99.90
30702;DHT22;17451;49.908;7.980;2022-07-11T01:11:39;20.20;99.90
30702;DHT22;17451;49.908;7.980;2022-07-11T01:14:07;20.20;99.90
30702;DHT22;17451;49.908;7.980;2022-07-11T01:16:33;20.20;99.90
30702;DHT22;17451;49.908;7.980;2022-07-11T01:18:58;20.20;99.90
30702;DHT22;17451;49.908;7.980;2022-07-11T01:21:37;20.20;99.90
30702;DHT22;17451;49.908;7.980;2022-07-11T01:24:05;20.30;99.90
30702;DHT22;17451;49.908;7.980;2022-07-11T01:26:31;20.20;99.90
30702;DHT22;17451;49.908;7.980;2022-07-11T01:29:08;20.20;99.90
30702;DHT22;17451;49.908;7.980;2022-07-11T01:31:35;20.20;99.90
30702;DHT22;17451;49.908;7.980;2022-07-11T01:34:03;20.10;99.90
30702;DHT22;17451;49.908;7.980;2022-07-11T01:36:30;20.10;99.90
30702;DHT22;17451;49.908;7.980;2022-07-11T01:38:56;20.10;99.90
30702;DHT22;17451;49.908;7.980;2022-07-11T01:41:24;20.00;99.90
30702;DHT22;17451;49.908;7.980;2022-07-11T01:43:50;20.00;99.90
30702;DHT22;17451;49.908;7.980;2022-07-11T01:46:23;20.00;99.90
30702;DHT22;17451;49.908;7.980;2022-07-11T01:48:58;20.00;99.90
30702;DHT22;17451;49.908;7.980;2022-07-11T01:51:33;19.90;99.90
30702;DHT22;17451;49.908;7.980;2022-07-11T01:54:08;19.60;99.90
30702;DHT22;17451;49.908;7.980;2022-07-11T01:56:42;19.40;99.90
30702;DHT22;17451;49.908;7.980;2022-07-11T01:59:07;19.40;99.90
30702;DHT22;17451;49.908;7.980;2022-07-11T02:01:36;19.40;99.90
30702;DHT22;17451;49.908;7.980;2022-07-11T02:04:02;19.60;99.90
30702;DHT22;17451;49.908;7.980;2022-07-11T02:06:30;19.70;99.90
30702;DHT22;17451;49.908;7.980;2022-07-11T02:08:56;19.80;99.90
30702;DHT22;17451;49.908;7.980;2022-07-11T02:11:22;19.60;99.90
30702;DHT22;17451;49.908;7.980;2022-07-11T02:13:47;19.60;99.90
30702;DHT22;17451;49.908;7.980;2022-07-11T02:16:13;19.70;99.90
30702;DHT22;17451;49.908;7.980;2022-07-11T02:18:39;19.70;99.90
30702;DHT22;17451;49.908;7.980;2022-07-11T02:21:04;19.60;99.90
30702;DHT22;17451;49.908;7.980;2022-07-11T02:23:30;19.50;99.90
30702;DHT22;17451;49.908;7.980;2022-07-11T02:25:56;19.60;99.90
30702;DHT22;17451;49.908;7.980;2022-07-11T02:28:22;19.70;99.90
30702;DHT22;17451;49.908;7.980;2022-07-11T02:30:50;19.70;99.90
30702;DHT22;17451;49.908;7.980;2022-07-11T02:33:18;19.80;99.90
30702;DHT22;17451;49.908;7.980;2022-07-11T02:35:46;19.80;99.90
30702;DHT22;17451;49.908;7.980;2022-07-11T02:38:12;19.70;99.90
30702;DHT22;17451;49.908;7.980;2022-07-11T02:40:40;19.70;99.90
30702;DHT22;17451;49.908;7.980;2022-07-11T02:43:06;19.70;99.90
30702;DHT22;17451;49.908;7.980;2022-07-11T02:45:35;19.80;99.90
30702;DHT22;17451;49.908;7.980;2022-07-11T02:48:01;19.80;99.90
30702;DHT22;17451;49.908;7.980;2022-07-11T02:50:29;19.80;99.90
30702;DHT22;17451;49.908;7.980;2022-07-11T02:52:55;19.80;99.90
30702;DHT22;17451;49.908;7.980;2022-07-11T02:55:21;19.90;99.90
30702;DHT22;17451;49.908;7.980;2022-07-11T02:57:46;19.90;99.90
30702;DHT22;17451;49.908;7.980;2022-07-11T03:00:15;19.90;99.90
30702;DHT22;17451;49.908;7.980;2022-07-11T03:02:41;19.90;99.90
30702;DHT22;17451;49.908;7.980;2022-07-11T03:05:07;19.90;99.90
30702;DHT22;17451;49.908;7.980;2022-07-11T03:07:33;20.00;99.90
30702;DHT22;17451;49.908;7.980;2022-07-11T03:09:59;19.90;99.90
30702;DHT22;17451;49.908;7.980;2022-07-11T03:12:25;19.90;99.90
30702;DHT22;17451;49.908;7.980;2022-07-11T03:14:50;19.90;99.90
30702;DHT22;17451;49.908;7.980;2022-07-11T03:17:16;19.90;99.90
30702;DHT22;17451;49.908;7.980;2022-07-11T03:19:42;19.90;99.90
30702;DHT22;17451;49.908;7.980;2022-07-11T03:22:08;19.70;99.90
30702;DHT22;17451;49.908;7.980;2022-07-11T03:24:33;19.70;99.90
30702;DHT22;17451;49.908;7.980;2022-07-11T03:26:59;19.60;99.90
30702;DHT22;17451;49.908;7.980;2022-07-11T03:29:25;19.60;99.90
30702;DHT22;17451;49.908;7.980;2022-07-11T03:31:53;19.70;99.90
30702;DHT22;17451;49.908;7.980;2022-07-11T03:34:19;19.70;99.90
30702;DHT22;17451;49.908;7.980;2022-07-11T03:36:45;19.70;99.90
30702;DHT22;17451;49.908;7.980;2022-07-11T03:39:16;19.80;99.90
30702;DHT22;17451;49.908;7.980;2022-07-11T03:41:41;19.80;99.90
30702;DHT22;17451;49.908;7.980;2022-07-11T03:44:07;19.90;99.90
30702;DHT22;17451;49.908;7.980;2022-07-11T03:46:34;19.90;99.90
30702;DHT22;17451;49.908;7.980;2022-07-11T03:48:59;19.90;99.90
30702;DHT22;17451;49.908;7.980;2022-07-11T03:51:25;20.00;99.90
30702;DHT22;17451;49.908;7.980;2022-07-11T03:53:51;20.00;99.90
30702;DHT22;17451;49.908;7.980;2022-07-11T03:56:16;20.00;99.90
30702;DHT22;17451;49.908;7.980;2022-07-11T03:58:52;20.00;99.90
30702;DHT22;17451;49.908;7.980;2022-07-11T04:01:26;20.00;99.90
30702;DHT22;17451;49.908;7.980;2022-07-11T04:03:51;20.10;99.90
30702;DHT22;17451;49.908;7.980;2022-07-11T04:06:20;20.10;99.90
30702;DHT22;17451;49.908;7.980;2022-07-11T04:08:53;20.10;99.90
30702;DHT22;17451;49.908;7.980;2022-07-11T04:11:28;20.00;99.90
30702;DHT22;17451;49.908;7.980;2022-07-11T04:13:57;20.00;99.90
30702;DHT22;17451;49.908;7.980;2022-07-11T04:16:26;20.00;99.90
30702;DHT22;17451;49.908;7.980;2022-07-11T04:18:56;20.00;99.90
30702;DHT22;17451;49.908;7.980;2022-07-11T04:21:33;20.00;99.90
30702;DHT22;17451;49.908;7.980;2022-07-11T04:24:04;20.00;99.90
30702;DHT22;17451;49.908;7.980;2022-07-11T04:26:35;20.00;99.90
30702;DHT22;17451;49.908;7.980;2022-07-11T04:29:01;20.10;99.90
30702;DHT22;17451;49.908;7.980;2022-07-11T04:31:27;20.00;99.90
30702;DHT22;17451;49.908;7.980;2022-07-11T04:36:31;20.10;99.90
30702;DHT22;17451;49.908;7.980;2022-07-11T04:39:00;20.10;99.90
30702;DHT22;17451;49.908;7.980;2022-07-11T04:41:29;20.10;99.90
30702;DHT22;17451;49.908;7.980;2022-07-11T04:44:00;20.20;99.90
30702;DHT22;17451;49.908;7.980;2022-07-11T04:46:45;20.20;99.90
30702;DHT22;17451;49.908;7.980;2022-07-11T04:49:42;20.20;99.90
30702;DHT22;17451;49.908;7.980;2022-07-11T04:52:17;20.30;99.90
30702;DHT22;17451;49.908;7.980;2022-07-11T04:54:43;20.30;99.90
30702;DHT22;17451;49.908;7.980;2022-07-11T04:57:29;20.30;99.90
30702;DHT22;17451;49.908;7.980;2022-07-11T04:59:57;20.30;99.90
30702;DHT22;17451;49.908;7.980;2022-07-11T05:02:34;20.30;99.90
30702;DHT22;17451;49.908;7.980;2022-07-11T05:05:05;20.40;99.90
30702;DHT22;17451;49.908;7.980;2022-07-11T05:14:13;20.70;99.90
30702;DHT22;17451;49.908;7.980;2022-07-11T05:53:47;21.40;99.90
30702;DHT22;17451;49.908;7.980;2022-07-11T06:19:23;21.70;99.90
30702;DHT22;17451;49.908;7.980;2022-07-11T06:21:59;21.60;99.90
30702;DHT22;17451;49.908;7.980;2022-07-11T06:24:41;21.60;99.90
30702;DHT22;17451;49.908;7.980;2022-07-11T06:27:15;21.60;99.90
30702;DHT22;17451;49.908;7.980;2022-07-11T06:30:02;21.60;99.90
30702;DHT22;17451;49.908;7.980;2022-07-11T06:32:58;21.70;99.90
30702;DHT22;17451;49.908;7.980;2022-07-11T06:35:24;21.60;99.90
30702;DHT22;17451;49.908;7.980;2022-07-11T06:38:06;21.70;99.90
30702;DHT22;17451;49.908;7.980;2022-07-11T06:40:35;21.70;99.90
30702;DHT22;17451;49.908;7.980;2022-07-11T06:43:04;21.70;99.90
30702;DHT22;17451;49.908;7.980;2022-07-11T06:45:32;21.70;99.90
30702;DHT22;17451;49.908;7.980;2022-07-11T06:48:01;21.70;99.90
30702;DHT22;17451;49.908;7.980;2022-07-11T06:50:30;21.80;99.90
30702;DHT22;17451;49.908;7.980;2022-07-11T06:53:04;21.90;99.90
30702;DHT22;17451;49.908;7.980;2022-07-11T06:55:30;21.90;99.90
30702;DHT22;17451;49.908;7.980;2022-07-11T06:57:56;21.90;99.90
30702;DHT22;17451;49.908;7.980;2022-07-11T07:00:27;22.00;99.90
30702;DHT22;17451;49.908;7.980;2022-07-11T07:02:54;22.00;99.90
30702;DHT22;17451;49.908;7.980;2022-07-11T07:05:20;22.00;99.90
30702;DHT22;17451;49.908;7.980;2022-07-11T07:07:50;22.10;99.90
30702;DHT22;17451;49.908;7.980;2022-07-11T07:10:21;22.00;99.90
30702;DHT22;17451;49.908;7.980;2022-07-11T07:12:47;22.10;99.90
30702;DHT22;17451;49.908;7.980;2022-07-11T07:15:28;22.20;99.90
30702;DHT22;17451;49.908;7.980;2022-07-11T07:17:54;22.30;99.90
30702;DHT22;17451;49.908;7.980;2022-07-11T07:20:20;22.30;99.90
30702;DHT22;17451;49.908;7.980;2022-07-11T07:22:45;22.30;99.90
30702;DHT22;17451;49.908;7.980;2022-07-11T07:25:13;22.30;99.90
30702;DHT22;17451;49.908;7.980;2022-07-11T07:27:42;22.40;99.90
30702;DHT22;17451;49.908;7.980;2022-07-11T07:30:08;22.40;99.90
30702;DHT22;17451;49.908;7.980;2022-07-11T07:32:45;22.60;99.90
30702;DHT22;17451;49.908;7.980;2022-07-11T07:35:13;22.60;99.90
30702;DHT22;17451;49.908;7.980;2022-07-11T07:37:39;22.60;99.90
30702;DHT22;17451;49.908;7.980;2022-07-11T07:40:07;22.70;99.90
30702;DHT22;17451;49.908;7.980;2022-07-11T07:42:33;22.70;99.90
30702;DHT22;17451;49.908;7.980;2022-07-11T07:45:01;22.70;99.90
30702;DHT22;17451;49.908;7.980;2022-07-11T07:47:29;22.70;99.90
30702;DHT22;17451;49.908;7.980;2022-07-11T07:49:55;22.70;99.90
30702;DHT22;17451;49.908;7.980;2022-07-11T07:52:33;22.70;99.90
30702;DHT22;17451;49.908;7.980;2022-07-11T07:55:09;22.70;99.90
30702;DHT22;17451;49.908;7.980;2022-07-11T07:57:34;22.70;99.90
30702;DHT22;17451;49.908;7.980;2022-07-11T08:00:01;22.70;99.90
30702;DHT22;17451;49.908;7.980;2022-07-11T08:02:45;22.70;99.90
30702;DHT22;17451;49.908;7.980;2022-07-11T08:05:23;22.60;99.90
30702;DHT22;17451;49.908;7.980;2022-07-11T08:07:51;22.60;99.90
30702;DHT22;17451;49.908;7.980;2022-07-11T08:10:28;22.50;99.90
30702;DHT22;17451;49.908;7.980;2022-07-11T08:12:56;22.40;99.90
30702;DHT22;17451;49.908;7.980;2022-07-11T08:15:22;22.40;99.90
30702;DHT22;17451;49.908;7.980;2022-07-11T08:17:50;22.40;99.90
30702;DHT22;17451;49.908;7.980;2022-07-11T08:20:18;22.30;99.90
30702;DHT22;17451;49.908;7.980;2022-07-11T08:22:44;22.20;99.90
30702;DHT22;17451;49.908;7.980;2022-07-11T08:25:10;22.20;99.90
30702;DHT22;17451;49.908;7.980;2022-07-11T08:27:39;22.10;99.90
30702;DHT22;17451;49.908;7.980;2022-07-11T08:30:12;22.10;99.90
30702;DHT22;17451;49.908;7.980;2022-07-11T08:32:58;22.10;99.90
30702;DHT22;17451;49.908;7.980;2022-07-11T08:35:26;22.10;99.90
30702;DHT22;17451;49.908;7.980;2022-07-11T08:37:54;22.10;99.90
30702;DHT22;17451;49.908;7.980;2022-07-11T08:40:20;22.10;99.90
30702;DHT22;17451;49.908;7.980;2022-07-11T08:42:55;22.10;99.90
30702;DHT22;17451;49.908;7.980;2022-07-11T08:45:30;22.20;99.90
30702;DHT22;17451;49.908;7.980;2022-07-11T08:47:57;22.20;99.90
30702;DHT22;17451;49.908;7.980;2022-07-11T08:50:26;22.10;99.90
30702;DHT22;17451;49.908;7.980;2022-07-11T08:52:55;22.10;99.90
30702;DHT22;17451;49.908;7.980;2022-07-11T08:55:22;22.20;99.90
30702;DHT22;17451;49.908;7.980;2022-07-11T08:57:48;22.20;99.90
30702;DHT22;17451;49.908;7.980;2022-07-11T09:00:19;22.20;99.90
30702;DHT22;17451;49.908;7.980;2022-07-11T09:02:47;22.10;99.90
30702;DHT22;17451;49.908;7.980;2022-07-11T09:05:13;22.30;99.90
30702;DHT22;17451;49.908;7.980;2022-07-11T09:07:43;22.20;99.90
30702;DHT22;17451;49.908;7.980;2022-07-11T09:10:10;22.40;99.90
30702;DHT22;17451;49.908;7.980;2022-07-11T09:12:36;22.40;99.90
30702;DHT22;17451;49.908;7.980;2022-07-11T09:15:01;22.30;99.90
30702;DHT22;17451;49.908;7.980;2022-07-11T09:17:30;22.40;99.90
30702;DHT22;17451;49.908;7.980;2022-07-11T09:19:58;22.50;99.90
30702;DHT22;17451;49.908;7.980;2022-07-11T09:22:24;22.50;99.90
30702;DHT22;17451;49.908;7.980;2022-07-11T09:25:11;22.60;99.90
30702;DHT22;17451;49.908;7.980;2022-07-11T09:30:19;22.90;99.90
30702;DHT22;17451;49.908;7.980;2022-07-11T09:32:54;22.90;99.90
30702;DHT22;17451;49.908;7.980;2022-07-11T09:35:32;23.10;99.90
30702;DHT22;17451;49.908;7.980;2022-07-11T09:38:14;23.20;99.90
30702;DHT22;17451;49.908;7.980;2022-07-11T09:40:43;23.10;99.90
30702;DHT22;17451;49.908;7.980;2022-07-11T09:43:09;23.20;99.90
30702;DHT22;17451;49.908;7.980;2022-07-11T09:45:35;23.20;99.90
30702;DHT22;17451;49.908;7.980;2022-07-11T09:48:07;23.20;99.90
30702;DHT22;17451;49.908;7.980;2022-07-11T09:50:33;23.40;99.90
30702;DHT22;17451;49.908;7.980;2022-07-11T09:52:59;23.50;99.90
30702;DHT22;17451;49.908;7.980;2022-07-11T09:55:32;23.70;99.90
30702;DHT22;17451;49.908;7.980;2022-07-11T09:58:02;23.70;99.70
30702;DHT22;17451;49.908;7.980;2022-07-11T10:00:28;23.70;99.70
30702;DHT22;17451;49.908;7.980;2022-07-11T10:02:58;23.70;99.60
30702;DHT22;17451;49.908;7.980;2022-07-11T10:05:27;23.80;99.80
30702;DHT22;17451;49.908;7.980;2022-07-11T10:07:53;23.80;99.50
30702;DHT22;17451;49.908;7.980;2022-07-11T10:10:23;23.80;99.70
30702;DHT22;17451;49.908;7.980;2022-07-11T10:12:50;23.80;99.60
30702;DHT22;17451;49.908;7.980;2022-07-11T10:15:16;23.80;99.50
30702;DHT22;17451;49.908;7.980;2022-07-11T10:21:11;23.60;99.80
30702;DHT22;17451;49.908;7.980;2022-07-11T10:32:28;23.40;99.90
30702;DHT22;17451;49.908;7.980;2022-07-11T10:37:51;23.60;99.90
30702;DHT22;17451;49.908;7.980;2022-07-11T10:42:57;23.60;99.90
30702;DHT22;17451;49.908;7.980;2022-07-11T10:45:26;23.60;99.80
30702;DHT22;17451;49.908;7.980;2022-07-11T10:48:11;23.70;99.80
30702;DHT22;17451;49.908;7.980;2022-07-11T13:06:43;28.30;87.30
30702;DHT22;17451;49.908;7.980;2022-07-11T13:09:38;28.60;86.20
30702;DHT22;17451;49.908;7.980;2022-07-11T13:15:38;29.10;85.20
30702;DHT22;17451;49.908;7.980;2022-07-11T13:18:22;29.10;86.20
30702;DHT22;17451;49.908;7.980;2022-07-11T13:21:26;29.00;86.10
30702;DHT22;17451;49.908;7.980;2022-07-11T13:23:57;29.60;84.90
30702;DHT22;17451;49.908;7.980;2022-07-11T13:26:31;31.40;80.00
30702;DHT22;17451;49.908;7.980;2022-07-11T13:28:57;33.00;77.00
30702;DHT22;17451;49.908;7.980;2022-07-11T13:31:23;34.60;71.80
30702;DHT22;17451;49.908;7.980;2022-07-11T13:33:49;35.80;68.20
30702;DHT22;17451;49.908;7.980;2022-07-11T13:36:15;36.40;65.80
30702;DHT22;17451;49.908;7.980;2022-07-11T13:38:44;37.30;62.80
30702;DHT22;17451;49.908;7.980;2022-07-11T14:04:20;31.80;70.90
30702;DHT22;17451;49.908;7.980;2022-07-11T14:07:04;31.60;71.50
30702;DHT22;17451;49.908;7.980;2022-07-11T14:09:50;31.60;71.10
30702;DHT22;17451;49.908;7.980;2022-07-11T14:12:37;31.40;72.10
30702;DHT22;17451;49.908;7.980;2022-07-11T14:15:09;31.40;72.30
30702;DHT22;17451;49.908;7.980;2022-07-11T14:17:46;31.30;72.80
30702;DHT22;17451;49.908;7.980;2022-07-11T14:20:20;31.20;73.00
30702;DHT22;17451;49.908;7.980;2022-07-11T14:22:55;31.20;73.30
30702;DHT22;17451;49.908;7.980;2022-07-11T14:25:39;31.10;73.20
30702;DHT22;17451;49.908;7.980;2022-07-11T14:31:42;30.90;73.60
30702;DHT22;17451;49.908;7.980;2022-07-11T14:34:08;30.70;73.90
30702;DHT22;17451;49.908;7.980;2022-07-11T14:36:56;30.50;75.40
30702;DHT22;17451;49.908;7.980;2022-07-11T14:42:17;30.30;75.30
30702;DHT22;17451;49.908;7.980;2022-07-11T14:44:43;30.10;76.10
30702;DHT22;17451;49.908;7.980;2022-07-11T14:49:50;29.80;76.80
30702;DHT22;17451;49.908;7.980;2022-07-11T14:52:31;29.80;77.10
30702;DHT22;17451;49.908;7.980;2022-07-11T14:54:57;29.90;76.10
30702;DHT22;17451;49.908;7.980;2022-07-11T14:57:24;29.80;75.90
30702;DHT22;17451;49.908;7.980;2022-07-11T14:59:52;29.80;76.10
30702;DHT22;17451;49.908;7.980;2022-07-11T15:02:20;29.80;76.40
30702;DHT22;17451;49.908;7.980;2022-07-11T15:07:50;29.70;76.70
30702;DHT22;17451;49.908;7.980;2022-07-11T15:10:46;29.60;76.60
30702;DHT22;17451;49.908;7.980;2022-07-11T15:13:32;29.60;77.40
30702;DHT22;17451;49.908;7.980;2022-07-11T15:16:08;29.70;76.50
30702;DHT22;17451;49.908;7.980;2022-07-11T15:21:33;29.40;77.50
30702;DHT22;17451;49.908;7.980;2022-07-11T15:24:04;29.40;77.60
30702;DHT22;17451;49.908;7.980;2022-07-11T15:26:30;29.40;76.80
30702;DHT22;17451;49.908;7.980;2022-07-11T15:28:57;29.30;76.90
30702;DHT22;17451;49.908;7.980;2022-07-11T15:31:23;29.40;77.40
30702;DHT22;17451;49.908;7.980;2022-07-11T15:33:51;29.20;77.50
30702;DHT22;17451;49.908;7.980;2022-07-11T15:36:34;29.20;77.20
30702;DHT22;17451;49.908;7.980;2022-07-11T15:38:59;29.10;77.20
30702;DHT22;17451;49.908;7.980;2022-07-11T15:41:25;29.10;77.80
30702;DHT22;17451;49.908;7.980;2022-07-11T15:44:09;29.00;77.70
30702;DHT22;17451;49.908;7.980;2022-07-11T15:46:36;29.00;78.50
30702;DHT22;17451;49.908;7.980;2022-07-11T15:49:05;28.90;78.10
30702;DHT22;17451;49.908;7.980;2022-07-11T15:51:34;28.80;79.40
30702;DHT22;17451;49.908;7.980;2022-07-11T15:54:05;28.60;79.30
30702;DHT22;17451;49.908;7.980;2022-07-11T15:56:38;28.50;79.00
30702;DHT22;17451;49.908;7.980;2022-07-11T15:59:07;28.40;79.80
30702;DHT22;17451;49.908;7.980;2022-07-11T16:01:35;28.30;80.50
30702;DHT22;17451;49.908;7.980;2022-07-11T16:04:08;28.20;80.00
30702;DHT22;17451;49.908;7.980;2022-07-11T16:06:40;28.30;80.30
30702;DHT22;17451;49.908;7.980;2022-07-11T16:09:06;28.20;80.20
30702;DHT22;17451;49.908;7.980;2022-07-11T16:11:41;28.30;80.80
30702;DHT22;17451;49.908;7.980;2022-07-11T16:14:53;28.30;80.40
30702;DHT22;17451;49.908;7.980;2022-07-11T16:17:31;28.40;80.40
30702;DHT22;17451;49.908;7.980;2022-07-11T16:20:34;28.30;79.30
30702;DHT22;17451;49.908;7.980;2022-07-11T16:23:17;28.30;79.30
30702;DHT22;17451;49.908;7.980;2022-07-11T16:26:05;28.20;78.50
30702;DHT22;17451;49.908;7.980;2022-07-11T16:28:42;28.10;78.50
30702;DHT22;17451;49.908;7.980;2022-07-11T16:31:19;28.10;78.30
30702;DHT22;17451;49.908;7.980;2022-07-11T16:33:45;27.90;79.50
30702;DHT22;17451;49.908;7.980;2022-07-11T16:36:36;27.80;79.60
30702;DHT22;17451;49.908;7.980;2022-07-11T16:39:14;27.70;78.80
30702;DHT22;17451;49.908;7.980;2022-07-11T16:42:04;27.70;77.30
30702;DHT22;17451;49.908;7.980;2022-07-11T16:44:54;27.70;78.00
30702;DHT22;17451;49.908;7.980;2022-07-11T16:50:44;27.50;79.00
30702;DHT22;17451;49.908;7.980;2022-07-11T18:36:55;25.90;86.70
30702;DHT22;17451;49.908;7.980;2022-07-11T18:39:55;25.70;86.30
30702;DHT22;17451;49.908;7.980;2022-07-11T19:44:21;23.30;93.00
30702;DHT22;17451;49.908;7.980;2022-07-11T19:49:20;22.90;93.70
30702;DHT22;17451;49.908;7.980;2022-07-11T19:54:50;22.80;94.10
30702;DHT22;17451;49.908;7.980;2022-07-11T20:00:31;22.50;94.50
30702;DHT22;17451;49.908;7.980;2022-07-11T20:09:06;22.40;95.00
30702;DHT22;17451;49.908;7.980;2022-07-11T20:11:44;22.40;95.30
30702;DHT22;17451;49.908;7.980;2022-07-11T20:14:44;22.40;95.00
30702;DHT22;17451;49.908;7.980;2022-07-11T20:17:24;22.30;95.40
30702;DHT22;17451;49.908;7.980;2022-07-11T20:20:01;22.20;95.30
30702;DHT22;17451;49.908;7.980;2022-07-11T20:22:33;22.20;95.70
30702;DHT22;17451;49.908;7.980;2022-07-11T20:25:04;22.20;95.80
30702;DHT22;17451;49.908;7.980;2022-07-11T20:30:31;22.10;96.20
30702;DHT22;17451;49.908;7.980;2022-07-11T20:33:17;21.90;96.70
30702;DHT22;17451;49.908;7.980;2022-07-11T20:35:49;21.80;97.10
30702;DHT22;17451;49.908;7.980;2022-07-11T20:38:17;21.70;97.30
30702;DHT22;17451;49.908;7.980;2022-07-11T20:40:52;21.70;97.30
30702;DHT22;17451;49.908;7.980;2022-07-11T20:43:28;21.70;97.50
30702;DHT22;17451;49.908;7.980;2022-07-11T20:46:05;21.70;97.70
30702;DHT22;17451;49.908;7.980;2022-07-11T20:48:45;21.70;97.80
30702;DHT22;17451;49.908;7.980;2022-07-11T20:51:16;21.70;98.00
30702;DHT22;17451;49.908;7.980;2022-07-11T20:53:47;21.60;98.10
30702;DHT22;17451;49.908;7.980;2022-07-11T20:56:14;21.60;98.30
30702;DHT22;17451;49.908;7.980;2022-07-11T20:58:40;21.60;98.50
30702;DHT22;17451;49.908;7.980;2022-07-11T21:01:10;21.60;98.70
30702;DHT22;17451;49.908;7.980;2022-07-11T21:03:39;21.50;98.70
30702;DHT22;17451;49.908;7.980;2022-07-11T21:06:04;21.50;99.00
30702;DHT22;17451;49.908;7.980;2022-07-11T21:08:30;21.50;99.10
30702;DHT22;17451;49.908;7.980;2022-07-11T21:11:00;21.40;99.30
30702;DHT22;17451;49.908;7.980;2022-07-11T21:13:34;21.40;99.60
30702;DHT22;17451;49.908;7.980;2022-07-11T21:16:00;21.40;99.70
30702;DHT22;17451;49.908;7.980;2022-07-11T21:18:28;21.30;99.90
30702;DHT22;17451;49.908;7.980;2022-07-11T21:20:54;21.40;99.90
30702;DHT22;17451;49.908;7.980;2022-07-11T21:23:19;21.20;99.90
30702;DHT22;17451;49.908;7.980;2022-07-11T21:25:48;21.20;99.90
30702;DHT22;17451;49.908;7.980;2022-07-11T21:28:14;21.20;99.90
30702;DHT22;17451;49.908;7.980;2022-07-11T21:30:42;21.10;99.90
30702;DHT22;17451;49.908;7.980;2022-07-11T21:33:13;21.10;99.90
30702;DHT22;17451;49.908;7.980;2022-07-11T21:35:44;21.00;99.90
30702;DHT22;17451;49.908;7.980;2022-07-11T21:38:12;21.00;99.90
30702;DHT22;17451;49.908;7.980;2022-07-11T21:40:48;21.00;99.90
30702;DHT22;17451;49.908;7.980;2022-07-11T21:43:16;20.90;99.90
30702;DHT22;17451;49.908;7.980;2022-07-11T21:45:47;20.90;99.90
30702;DHT22;17451;49.908;7.980;2022-07-11T21:48:16;20.90;99.90
30702;DHT22;17451;49.908;7.980;2022-07-11T21:50:47;20.80;99.90
30702;DHT22;17451;49.908;7.980;2022-07-11T21:53:13;20.80;99.90
30702;DHT22;17451;49.908;7.980;2022-07-11T21:55:41;20.80;99.90
30702;DHT22;17451;49.908;7.980;2022-07-11T21:58:24;20.70;99.90
30702;DHT22;17451;49.908;7.980;2022-07-11T22:00:55;20.70;99.90
30702;DHT22;17451;49.908;7.980;2022-07-11T22:03:29;20.70;99.90
30702;DHT22;17451;49.908;7.980;2022-07-11T22:05:57;20.60;99.90
30702;DHT22;17451;49.908;7.980;2022-07-11T22:08:23;20.60;99.90
30702;DHT22;17451;49.908;7.980;2022-07-11T22:10:51;20.60;99.90
30702;DHT22;17451;49.908;7.980;2022-07-11T22:13:18;20.50;99.90
30702;DHT22;17451;49.908;7.980;2022-07-11T22:15:48;20.50;99.90
30702;DHT22;17451;49.908;7.980;2022-07-11T22:18:32;20.40;99.90
30702;DHT22;17451;49.908;7.980;2022-07-11T22:21:03;20.40;99.90
30702;DHT22;17451;49.908;7.980;2022-07-11T22:23:37;20.40;99.90
30702;DHT22;17451;49.908;7.980;2022-07-11T22:26:08;20.30;99.90
30702;DHT22;17451;49.908;7.980;2022-07-11T22:28:34;20.30;99.90
30702;DHT22;17451;49.908;7.980;2022-07-11T22:30:59;20.30;99.90
30702;DHT22;17451;49.908;7.980;2022-07-11T22:33:28;20.20;99.90
30702;DHT22;17451;49.908;7.980;2022-07-11T22:36:03;20.20;99.90
30702;DHT22;17451;49.908;7.980;2022-07-11T22:38:29;20.20;99.90
30702;DHT22;17451;49.908;7.980;2022-07-11T22:40:55;20.10;99.90
30702;DHT22;17451;49.908;7.980;2022-07-11T22:43:21;20.10;99.90
30702;DHT22;17451;49.908;7.980;2022-07-11T22:46:04;20.10;99.90
30702;DHT22;17451;49.908;7.980;2022-07-11T22:48:39;20.10;99.90
30702;DHT22;17451;49.908;7.980;2022-07-11T22:51:05;20.00;99.90
30702;DHT22;17451;49.908;7.980;2022-07-11T22:53:31;20.00;99.90
30702;DHT22;17451;49.908;7.980;2022-07-11T22:55:59;20.00;99.90
30702;DHT22;17451;49.908;7.980;2022-07-11T22:58:44;20.00;99.90
30702;DHT22;17451;49.908;7.980;2022-07-11T23:01:19;20.00;99.90
30702;DHT22;17451;49.908;7.980;2022-07-11T23:04:11;19.90;99.90
30702;DHT22;17451;49.908;7.980;2022-07-11T23:07:00;20.00;99.90
30702;DHT22;17451;49.908;7.980;2022-07-11T23:09:28;19.90;99.90
30702;DHT22;17451;49.908;7.980;2022-07-11T23:11:57;19.90;99.90
30702;DHT22;17451;49.908;7.980;2022-07-11T23:14:25;19.80;99.90
30702;DHT22;17451;49.908;7.980;2022-07-11T23:16:58;19.80;99.90
30702;DHT22;17451;49.908;7.980;2022-07-11T23:19:24;19.70;99.90
30702;DHT22;17451;49.908;7.980;2022-07-11T23:21:52;19.70;99.90
30702;DHT22;17451;49.908;7.980;2022-07-11T23:24:18;19.70;99.90
30702;DHT22;17451;49.908;7.980;2022-07-11T23:29:52;19.70;99.90
30702;DHT22;17451;49.908;7.980;2022-07-11T23:32:25;19.70;99.90